Time;durP1;ratioP1;P1;durP2;ratioP2;P2;SDS_P1;SDS_P2;PMS_P1;PMS_P2;Temp;Humidity;BMP_temperature;BMP_pressure;BME280_temperature;BME280_humidity;BME280_pressure;Samples;Min_cycle;Max_cycle;Signal;HPM_P1;HPM_P2
2022/09/27 00:00:04;;;;;;;;;2.00;1.00;;;;;14.60;58.89;99951.81;5055900;28;45408;-66
2022/09/27 00:02:29;;;;;;;;;2.67;2.67;;;;;14.60;58.97;99954.47;5055893;28;47431;-65
2022/09/27 00:04:55;;;;;;;;;1.33;1.33;;;;;14.53;58.81;99931.78;5056259;28;45818;-63
2022/09/27 00:07:20;;;;;;;;;1.00;1.00;;;;;14.59;58.27;99945.69;5059797;28;45410;-64
2022/09/27 00:09:46;;;;;;;;;1.00;1.00;;;;;14.62;58.90;99957.91;5063060;28;45509;-66
2022/09/27 00:12:11;;;;;;;;;2.00;1.00;;;;;14.62;58.36;99960.56;5058198;28;47602;-64
2022/09/27 00:14:37;;;;;;;;;3.33;1.00;;;;;14.52;58.61;99944.09;5067560;28;45594;-64
2022/09/27 00:17:02;;;;;;;;;1.00;1.00;;;;;14.57;58.94;99957.19;5061793;28;45441;-64
2022/09/27 00:19:28;;;;;;;;;1.33;1.33;;;;;14.52;58.65;99957.28;5076619;27;45428;-65
2022/09/27 00:21:55;;;;;;;;;2.00;0.00;;;;;14.39;58.94;99943.53;5076350;27;46173;-64
2022/09/27 00:24:21;;;;;;;;;1.00;1.00;;;;;14.33;58.85;99943.72;5080354;28;45503;-63
2022/09/27 00:26:47;;;;;;;;;1.00;1.00;;;;;14.26;59.55;99939.53;5072671;28;45428;-64
2022/09/27 00:29:16;;;;;;;;;1.00;1.00;;;;;14.31;59.64;99953.44;5067156;28;45797;-63
2022/09/27 00:31:42;;;;;;;;;2.00;2.00;;;;;14.09;59.60;99923.25;5043121;28;46714;-64
2022/09/27 00:34:19;;;;;;;;;1.00;1.00;;;;;14.24;59.92;99964.13;5075737;27;45494;-65
2022/09/27 00:36:45;;;;;;;;;2.33;1.00;;;;;14.25;59.77;99977.28;5076280;28;45429;-63
2022/09/27 00:39:11;;;;;;;;;1.00;1.00;;;;;14.30;59.92;99978.03;5076960;28;45496;-66
2022/09/27 00:41:37;;;;;;;;;2.67;1.00;;;;;14.25;60.64;99973.78;5071686;27;45667;-64
2022/09/27 00:44:24;;;;;;;;;4.00;1.00;;;;;14.30;60.13;99982.44;5073938;27;45540;-64
2022/09/27 00:47:02;;;;;;;;;1.00;1.00;;;;;14.29;60.20;99976.31;5061968;28;45356;-68
2022/09/27 00:49:37;;;;;;;;;3.00;2.33;;;;;14.31;60.54;99978.91;5061139;28;45480;-65
2022/09/27 00:52:10;;;;;;;;;0.33;0.33;;;;;14.27;60.71;99985.16;5079667;28;45472;-65
2022/09/27 00:54:41;;;;;;;;;2.67;1.67;;;;;14.26;61.26;99980.78;5068465;28;45388;-65
2022/09/27 00:57:08;;;;;;;;;2.00;2.00;;;;;14.19;61.24;99978.31;5057245;28;45528;-63
2022/09/27 01:00:02;;;;;;;;;4.00;2.00;;;;;14.16;61.27;99983.63;5075674;27;45817;-67
2022/09/27 01:02:28;;;;;;;;;2.00;2.00;;;;;14.17;61.55;99993.28;5075540;28;46348;-67
2022/09/27 01:04:55;;;;;;;;;1.00;1.00;;;;;14.11;61.22;99984.66;5079763;28;45428;-64
2022/09/27 01:07:21;;;;;;;;;1.00;1.00;;;;;14.07;61.86;99990.88;5058512;28;45421;-65
2022/09/27 01:09:47;;;;;;;;;1.33;1.33;;;;;14.05;61.23;99990.06;5075651;28;45493;-65
2022/09/27 01:12:18;;;;;;;;;3.00;2.00;;;;;14.10;61.62;99996.97;5053772;28;47112;-64
2022/09/27 01:15:03;;;;;;;;;1.00;1.00;;;;;14.08;61.82;99995.28;5060657;28;45508;-66
2022/09/27 01:17:40;;;;;;;;;4.00;1.00;;;;;14.08;61.90;99990.00;5064686;28;45448;-64
2022/09/27 01:20:31;;;;;;;;;2.33;2.00;;;;;14.04;61.79;99990.97;5061664;28;45524;-64
2022/09/27 01:23:09;;;;;;;;;1.00;1.00;;;;;14.03;62.28;99994.53;5074695;28;46185;-64
2022/09/27 01:26:01;;;;;;;;;1.00;1.00;;;;;14.00;62.21;99990.19;5058983;28;45641;-64
2022/09/27 01:28:45;;;;;;;;;1.33;1.33;;;;;13.97;62.09;99999.00;5078928;28;45433;-63
2022/09/27 01:31:48;;;;;;;;;1.00;1.00;;;;;13.94;61.81;100003.50;5060144;28;45648;-63
2022/09/27 01:34:29;;;;;;;;;1.00;1.00;;;;;13.90;62.02;99992.16;5074565;27;46099;-64
2022/09/27 01:37:25;;;;;;;;;7.00;1.00;;;;;13.98;61.58;99995.50;5060223;28;45450;-63
2022/09/27 01:39:51;;;;;;;;;1.33;1.00;;;;;13.99;61.54;99997.22;5077134;28;45435;-63
2022/09/27 01:42:25;;;;;;;;;1.00;1.00;;;;;13.99;61.71;100005.09;5074711;27;45457;-64
2022/09/27 01:44:54;;;;;;;;;1.00;1.00;;;;;13.89;61.99;99993.06;5077764;28;45683;-63
2022/09/27 01:47:30;;;;;;;;;2.67;2.00;;;;;13.95;62.12;100000.84;5072721;28;45417;-65
2022/09/27 01:50:03;;;;;;;;;2.33;1.00;;;;;13.89;61.61;99987.81;5068835;28;45686;-66
2022/09/27 01:52:36;;;;;;;;;2.33;1.00;;;;;13.85;62.11;99985.28;5074839;28;45327;-62
2022/09/27 01:55:06;;;;;;;;;1.00;1.00;;;;;13.79;62.35;99987.16;5070109;28;45350;-66
2022/09/27 01:57:37;;;;;;;;;0.00;0.00;;;;;13.86;61.92;100000.19;5065804;28;45410;-64
2022/09/27 02:00:09;;;;;;;;;1.00;1.00;;;;;13.79;62.41;99986.31;5050585;28;45371;-66
2022/09/27 02:02:40;;;;;;;;;3.00;1.00;;;;;13.82;62.13;100002.00;5075186;28;45469;-64
2022/09/27 02:05:10;;;;;;;;;3.00;1.00;;;;;13.88;62.24;100009.78;5078576;28;45529;-65
2022/09/27 02:07:56;;;;;;;;;0.33;0.33;;;;;13.85;61.92;100001.94;5065226;28;45539;-64
2022/09/27 02:10:26;;;;;;;;;2.00;0.67;;;;;13.89;62.23;100016.75;5078147;27;45370;-64
2022/09/27 02:13:14;;;;;;;;;1.00;1.00;;;;;13.86;62.00;100008.94;5074541;28;45442;-65
2022/09/27 02:16:19;;;;;;;;;2.67;1.00;;;;;13.84;61.73;100012.50;5074207;28;45970;-68
2022/09/27 02:19:25;;;;;;;;;1.00;1.00;;;;;13.80;62.07;100003.81;5045174;27;45540;-67
2022/09/27 02:22:14;;;;;;;;;0.00;0.00;;;;;13.74;61.99;99996.94;5056856;28;45361;-68
2022/09/27 02:25:27;;;;;;;;;3.67;1.00;;;;;13.74;62.20;99991.66;5079238;28;45377;-65
2022/09/27 02:28:09;;;;;;;;;1.00;1.00;;;;;13.75;62.33;99989.91;4991215;28;46214;-66
2022/09/27 02:30:35;;;;;;;;;1.00;1.00;;;;;13.68;62.11;99975.16;4993843;28;45776;-63
2022/09/27 02:33:01;;;;;;;;;1.00;1.00;;;;;13.74;62.25;99996.94;5048063;28;45396;-65
2022/09/27 02:35:35;;;;;;;;;0.00;0.00;;;;;13.61;61.91;99963.88;5078451;28;45551;-67
2022/09/27 02:38:02;;;;;;;;;3.00;0.00;;;;;13.69;61.98;99980.38;5059307;28;46909;-65
2022/09/27 02:40:34;;;;;;;;;0.00;0.00;;;;;13.74;61.98;99982.91;5071745;28;45718;-64
2022/09/27 02:43:03;;;;;;;;;1.00;1.00;;;;;13.73;61.84;99995.19;5064183;28;45563;-64
2022/09/27 02:45:48;;;;;;;;;0.00;0.00;;;;;13.70;62.25;99995.25;5077351;28;45311;-64
2022/09/27 02:48:31;;;;;;;;;1.33;1.00;;;;;13.71;62.47;99989.09;5056369;28;48228;-63
2022/09/27 02:51:15;;;;;;;;;2.00;1.00;;;;;13.70;62.66;99991.78;5056482;28;45650;-64
2022/09/27 02:54:05;;;;;;;;;2.00;1.00;;;;;13.67;62.85;99997.97;5047710;28;45448;-64
2022/09/27 02:56:51;;;;;;;;;0.67;0.00;;;;;13.68;63.06;99996.19;5053547;28;45539;-65
2022/09/27 02:59:37;;;;;;;;;1.33;1.33;;;;;13.61;63.09;99981.44;5052249;28;46700;-65
2022/09/27 03:02:17;;;;;;;;;0.00;0.00;;;;;13.65;63.14;100006.81;5074357;28;45489;-64
2022/09/27 03:04:51;;;;;;;;;0.67;0.67;;;;;13.62;62.90;100001.59;5073844;28;45461;-67
2022/09/27 03:07:17;;;;;;;;;0.00;0.00;;;;;13.58;63.81;99999.03;5073780;28;45330;-66
2022/09/27 03:09:46;;;;;;;;;1.00;1.00;;;;;13.55;63.73;99993.84;5059318;28;45460;-63
2022/09/27 03:12:13;;;;;;;;;2.00;0.33;;;;;13.56;64.13;99994.72;5061938;28;45478;-64
2022/09/27 03:14:39;;;;;;;;;0.00;0.00;;;;;13.50;63.60;99993.09;5081253;28;45464;-63
2022/09/27 03:17:05;;;;;;;;;0.00;0.00;;;;;13.56;63.63;99997.34;5081397;27;45429;-63
2022/09/27 03:19:31;;;;;;;;;1.00;1.00;;;;;13.55;64.02;99993.84;5067653;28;46548;-64
2022/09/27 03:21:57;;;;;;;;;0.00;0.00;;;;;13.53;64.11;99976.38;5074682;27;45488;-64
2022/09/27 03:24:22;;;;;;;;;1.33;1.00;;;;;13.51;63.73;99968.50;5058839;28;45627;-63
2022/09/27 03:26:48;;;;;;;;;2.00;0.00;;;;;13.58;64.21;99985.88;5061813;28;45579;-63
2022/09/27 03:29:14;;;;;;;;;1.00;1.00;;;;;13.63;64.24;99998.06;5081400;27;46355;-63
2022/09/27 03:31:40;;;;;;;;;2.00;0.00;;;;;13.64;63.54;100005.06;5081215;28;45382;-64
2022/09/27 03:34:06;;;;;;;;;1.00;1.00;;;;;13.73;64.32;100007.47;5061762;28;45453;-67
2022/09/27 03:36:31;;;;;;;;;0.00;0.00;;;;;13.70;65.24;99986.50;5077127;28;45466;-64
2022/09/27 03:38:57;;;;;;;;;2.00;0.00;;;;;13.70;65.39;99989.13;5076611;28;45411;-64
2022/09/27 03:41:22;;;;;;;;;2.00;1.00;;;;;13.78;65.11;100002.97;5076739;27;45612;-64
2022/09/27 03:43:48;;;;;;;;;3.00;1.00;;;;;13.76;64.99;99996.88;5057058;28;45719;-64
2022/09/27 03:46:14;;;;;;;;;1.00;1.00;;;;;13.82;64.89;100012.53;5076826;28;45344;-63
2022/09/27 03:48:41;;;;;;;;;0.00;0.00;;;;;13.78;64.52;99995.94;5076879;28;46556;-65
2022/09/27 03:51:07;;;;;;;;;0.00;0.00;;;;;13.82;64.83;99995.88;5076517;27;45358;-64
2022/09/27 03:53:33;;;;;;;;;0.33;0.33;;;;;13.75;64.60;99988.13;5064555;28;45485;-65
2022/09/27 03:55:58;;;;;;;;;2.33;0.00;;;;;13.78;65.03;99995.94;5077282;28;45529;-65
2022/09/27 03:58:24;;;;;;;;;1.33;0.67;;;;;13.67;64.87;99982.19;5066239;27;46035;-64
2022/09/27 04:00:49;;;;;;;;;0.00;0.00;;;;;13.66;65.21;99987.47;5062626;28;45406;-64
2022/09/27 04:03:16;;;;;;;;;2.00;0.00;;;;;13.66;64.93;99990.09;5081082;28;45475;-66
2022/09/27 04:05:42;;;;;;;;;2.00;0.00;;;;;13.60;64.85;99979.72;5065324;28;46110;-63
2022/09/27 04:08:09;;;;;;;;;1.67;1.00;;;;;13.58;65.58;99964.81;5057429;28;46568;-64
2022/09/27 04:10:35;;;;;;;;;2.00;2.00;;;;;13.42;65.99;99963.44;5060706;28;45428;-67
2022/09/27 08:53:32;;;;;;;;;2.33;1.00;;;;;13.26;68.38;100101.38;5108138;27;45906;-64
2022/09/27 08:56:01;;;;;;;;;1.00;1.00;;;;;13.35;67.79;100083.69;5111760;27;45603;-63
2022/09/27 08:58:34;;;;;;;;;5.00;2.00;;;;;13.65;67.77;100096.28;5109204;27;45805;-63
2022/09/27 09:01:08;;;;;;;;;2.33;1.00;;;;;13.90;65.78;100081.66;5111162;27;45385;-65
2022/09/27 09:03:38;;;;;;;;;1.00;1.00;;;;;14.10;65.50;100083.00;5113292;27;45398;-67
2022/09/27 09:06:19;;;;;;;;;2.00;2.00;;;;;14.34;65.05;100086.84;5110356;27;45594;-64
2022/09/27 09:08:57;;;;;;;;;1.00;1.00;;;;;14.60;66.30;100080.97;5108840;27;45434;-65
2022/09/27 09:15:01;;;;;;;;;1.00;1.00;;;;;15.22;65.08;100082.84;5110261;27;45948;-63
2022/09/27 09:17:41;;;;;;;;;0.67;0.67;;;;;15.46;65.14;100084.78;5107099;27;45367;-63
2022/09/27 09:20:12;;;;;;;;;1.00;1.00;;;;;15.64;62.90;100091.31;5113860;27;45421;-63
2022/09/27 09:22:48;;;;;;;;;4.33;2.00;;;;;15.62;61.95;100079.94;5115159;27;45317;-62
2022/09/27 09:25:27;;;;;;;;;0.67;0.67;;;;;15.62;61.24;100066.75;5114595;27;45475;-66
2022/09/27 09:28:42;;;;;;;;;1.00;1.00;;;;;15.74;61.24;100077.91;5109704;27;45416;-64
2022/09/27 09:31:52;;;;;;;;;2.67;2.33;;;;;15.93;60.75;100065.00;5097287;27;45436;-62
2022/09/27 09:34:32;;;;;;;;;3.33;3.00;;;;;15.97;60.15;100061.31;5106685;27;45777;-64
2022/09/27 09:37:29;;;;;;;;;0.33;0.33;;;;;16.14;59.75;100051.13;5109342;27;46016;-63
2022/09/27 09:40:07;;;;;;;;;3.00;2.00;;;;;16.41;58.93;100057.28;5110114;27;45881;-65
2022/09/27 09:42:39;;;;;;;;;3.00;1.00;;;;;16.67;57.26;100064.34;5109097;27;45383;-71
2022/09/27 09:45:29;;;;;;;;;1.67;1.00;;;;;16.57;56.99;100017.13;5114747;27;45516;-65
2022/09/27 09:48:04;;;;;;;;;1.67;1.00;;;;;16.90;56.34;100044.22;5111774;27;46250;-63
2022/09/27 09:50:44;;;;;;;;;1.00;1.00;;;;;17.13;56.49;100038.97;5108486;27;45793;-66
2022/09/27 09:53:13;;;;;;;;;1.00;1.00;;;;;17.45;55.99;100028.97;5112986;27;45628;-64
2022/09/27 09:55:43;;;;;;;;;1.67;1.67;;;;;17.97;54.69;100034.94;5108801;27;45717;-67
2022/09/27 09:58:30;;;;;;;;;1.00;1.00;;;;;18.35;53.90;100029.88;5112064;27;45375;-67
2022/09/27 10:00:59;;;;;;;;;2.33;2.00;;;;;18.57;51.81;100021.88;5108492;27;45597;-63
2022/09/27 10:03:25;;;;;;;;;2.33;1.00;;;;;18.73;52.32;100014.13;5118610;27;45455;-65
2022/09/27 10:05:51;;;;;;;;;1.00;1.00;;;;;18.84;51.17;100008.41;5097827;27;45542;-64
2022/09/27 10:08:20;;;;;;;;;3.00;1.00;;;;;18.85;51.24;100010.97;5100526;27;45947;-64
2022/09/27 10:10:46;;;;;;;;;2.33;1.00;;;;;18.70;50.75;100010.72;5097955;27;45668;-64
2022/09/27 10:13:17;;;;;;;;;0.00;0.00;;;;;18.62;51.19;100009.28;5095938;27;45639;-64
2022/09/27 10:15:49;;;;;;;;;0.67;0.67;;;;;18.56;51.31;99993.63;5095952;27;45369;-63
2022/09/27 10:18:18;;;;;;;;;0.33;0.00;;;;;18.54;51.48;99998.16;5095914;27;46292;-63
2022/09/27 10:20:57;;;;;;;;;1.33;1.33;;;;;18.57;51.23;99994.50;5095336;27;45692;-64
2022/09/27 10:23:24;;;;;;;;;1.00;1.00;;;;;18.95;49.92;99999.97;5096358;27;45645;-64
2022/09/27 10:26:01;;;;;;;;;0.50;0.50;;;;;18.93;48.97;100005.31;5097852;27;45600;-64
2022/09/27 10:28:40;;;;;;;;;1.00;1.00;;;;;19.01;49.71;99999.69;5095491;27;46376;-64
2022/09/27 10:31:12;;;;;;;;;1.00;1.00;;;;;19.02;49.12;99988.13;5088786;27;45337;-65
2022/09/27 10:34:01;;;;;;;;;1.67;1.00;;;;;18.79;49.43;99991.81;5095474;27;45399;-64
2022/09/27 10:36:30;;;;;;;;;3.00;1.00;;;;;18.49;50.28;99992.19;5083905;27;45347;-63
2022/09/27 10:38:58;;;;;;;;;1.00;1.00;;;;;18.21;50.83;99995.13;5095444;27;45570;-64
2022/09/27 10:41:38;;;;;;;;;1.00;1.00;;;;;17.96;51.68;99998.78;5097611;27;45481;-65
2022/09/27 10:44:19;;;;;;;;;0.33;0.00;;;;;17.72;52.62;100008.50;5100156;27;45240;-62
2022/09/27 10:46:48;;;;;;;;;3.00;2.00;;;;;17.47;52.89;99999.81;5096215;27;45446;-66
2022/09/27 10:49:16;;;;;;;;;2.00;2.00;;;;;17.43;53.81;100012.28;5094918;27;45385;-64
2022/09/27 10:51:44;;;;;;;;;4.67;2.00;;;;;17.32;54.71;100012.69;5095365;27;45669;-64
2022/09/27 10:54:22;;;;;;;;;4.00;2.00;;;;;17.24;55.21;100019.19;5096055;27;45982;-63
2022/09/27 10:56:58;;;;;;;;;8.00;6.67;;;;;17.04;56.35;100014.63;5099939;27;45317;-63
2022/09/27 10:59:26;;;;;;;;;84.50;74.75;;;;;16.95;57.46;100036.97;5099493;27;45309;-65
2022/09/27 11:01:52;;;;;;;;;62.50;51.50;;;;;16.86;57.30;100030.22;5098757;27;45346;-68
2022/09/27 11:04:23;;;;;;;;;61.00;49.00;;;;;16.83;58.18;100025.06;5095534;27;45381;-65
2022/09/27 11:06:49;;;;;;;;;53.50;41.50;;;;;16.89;58.15;100022.16;5093936;27;45506;-65
2022/09/27 11:09:25;;;;;;;;;49.75;36.50;;;;;16.97;57.74;100024.56;5093583;27;47633;-65
2022/09/27 11:12:08;;;;;;;;;24.33;20.33;;;;;16.92;57.46;100015.94;5097028;27;45508;-64
2022/09/27 11:14:34;;;;;;;;;14.00;14.00;;;;;16.86;57.94;100017.00;5094361;27;45423;-64
2022/09/27 11:17:09;;;;;;;;;10.67;7.67;;;;;16.87;57.72;100009.91;5093249;27;45534;-64
2022/09/27 11:19:54;;;;;;;;;5.00;5.00;;;;;16.77;57.57;99988.19;5094706;27;45487;-66
2022/09/27 11:22:34;;;;;;;;;8.00;5.00;;;;;16.97;57.47;99999.91;5095457;27;45485;-63
2022/09/27 11:25:30;;;;;;;;;3.00;3.00;;;;;17.05;56.95;100019.00;5104281;27;45528;-65
2022/09/27 11:28:26;;;;;;;;;5.33;3.67;;;;;17.11;56.65;100024.94;5097994;27;45373;-64
2022/09/27 11:31:04;;;;;;;;;3.00;3.00;;;;;17.18;56.45;100015.00;5099273;27;45404;-65
2022/09/27 11:33:49;;;;;;;;;5.00;5.00;;;;;17.23;56.79;100012.19;5097389;27;45487;-66
2022/09/27 11:36:26;;;;;;;;;6.00;4.00;;;;;17.28;56.03;100021.66;5098686;27;45585;-67
2022/09/27 11:39:28;;;;;;;;;3.00;3.00;;;;;17.30;56.18;100024.28;5097329;27;45411;-65
2022/09/27 11:42:32;;;;;;;;;3.33;3.33;;;;;17.26;56.11;100009.41;5084077;27;45381;-65
2022/09/27 11:45:20;;;;;;;;;5.00;2.00;;;;;17.19;55.87;100003.47;5094435;27;45655;-65
2022/09/27 11:48:12;;;;;;;;;1.00;1.00;;;;;17.09;56.08;100002.09;5094130;27;45340;-66
2022/09/27 11:50:58;;;;;;;;;2.33;1.00;;;;;17.25;55.80;100010.31;5089603;27;45492;-66
2022/09/27 11:53:35;;;;;;;;;2.33;2.00;;;;;17.41;55.69;99997.38;5093105;27;47712;-65
2022/09/27 11:56:33;;;;;;;;;3.00;1.00;;;;;17.60;55.01;99983.34;5094600;27;45495;-68
2022/09/27 11:59:07;;;;;;;;;3.00;2.00;;;;;17.56;54.03;99975.63;5082812;27;45546;-66
2022/09/27 12:01:59;;;;;;;;;2.00;2.00;;;;;19.17;51.53;99981.28;5093871;27;45353;-71
2022/09/27 12:04:41;;;;;;;;;1.00;1.00;;;;;22.17;44.88;99972.06;5093840;27;45603;-66
2022/09/27 12:07:45;;;;;;;;;1.00;1.00;;;;;23.32;43.31;99970.47;5114271;27;45375;-67
2022/09/27 12:10:15;;;;;;;;;1.00;1.00;;;;;25.43;37.85;99930.38;5095106;27;45538;-66
2022/09/27 12:12:45;;;;;;;;;1.00;1.00;;;;;27.04;35.82;99971.06;5094613;27;45310;-65
2022/09/27 12:15:19;;;;;;;;;0.00;0.00;;;;;28.02;34.47;99956.91;5095583;27;45475;-65
2022/09/27 12:17:52;;;;;;;;;0.00;0.00;;;;;28.58;32.63;99945.91;5094741;27;45493;-70
2022/09/27 12:20:32;;;;;;;;;1.00;1.00;;;;;27.05;34.76;99941.38;5094011;27;45542;-66
2022/09/27 12:23:10;;;;;;;;;1.00;1.00;;;;;24.87;38.71;99962.91;5093021;27;45374;-67
2022/09/27 12:25:40;;;;;;;;;1.00;1.00;;;;;23.43;40.42;99959.09;5094128;27;46017;-67
2022/09/27 12:28:27;;;;;;;;;4.67;1.67;;;;;22.54;42.25;99961.88;5094094;27;45396;-66
2022/09/27 12:31:07;;;;;;;;;1.00;1.00;;;;;21.79;44.10;99940.47;5112970;27;45444;-65
2022/09/27 12:34:02;;;;;;;;;4.00;1.67;;;;;21.16;45.16;99942.13;5098681;27;45438;-65
2022/09/27 12:36:34;;;;;;;;;2.67;1.00;;;;;20.66;46.48;99950.16;5111493;27;48076;-65
2022/09/27 12:39:18;;;;;;;;;1.00;1.00;;;;;20.16;47.67;99956.22;5086632;27;45759;-67
2022/09/27 12:42:00;;;;;;;;;2.00;1.00;;;;;19.57;48.65;99944.91;5090412;27;45495;-66
2022/09/27 12:44:27;;;;;;;;;2.00;1.00;;;;;19.21;49.39;99951.00;5094460;27;45378;-65
2022/09/27 12:47:31;;;;;;;;;3.67;2.00;;;;;18.79;50.59;99959.97;5079286;27;45529;-66
2022/09/27 12:50:09;;;;;;;;;1.67;1.67;;;;;18.40;51.26;99963.41;5093829;27;45504;-65
2022/09/27 12:52:40;;;;;;;;;2.67;1.00;;;;;18.17;52.37;99962.56;5093989;27;45456;-65
2022/09/27 12:56:00;;;;;;;;;4.00;1.00;;;;;18.05;53.26;99959.56;5093024;27;45799;-65
2022/09/27 12:58:48;;;;;;;;;5.33;3.00;;;;;17.66;54.47;99929.31;5013353;28;45984;-65
2022/09/27 13:01:26;;;;;;;;;124.50;118.25;;;;;17.85;54.69;99948.00;5084996;27;45463;-66
2022/09/27 13:04:29;;;;;;;;;110.33;102.00;;;;;17.85;53.97;99945.38;5084311;27;45440;-65
2022/09/27 13:07:16;;;;;;;;;39.50;34.75;;;;;17.77;53.80;99947.41;5093397;27;45438;-66
2022/09/27 13:10:13;;;;;;;;;11.33;11.00;;;;;17.67;54.03;99943.41;5108537;27;45662;-65
2022/09/27 13:12:46;;;;;;;;;5.00;3.67;;;;;17.55;54.82;99936.81;5096975;27;45186;-66
2022/09/27 13:15:30;;;;;;;;;4.33;4.33;;;;;17.55;54.51;99942.13;5096184;27;45392;-66
2022/09/27 13:18:02;;;;;;;;;2.00;2.00;;;;;17.54;54.94;99935.09;5073553;27;45484;-65
2022/09/27 13:20:33;;;;;;;;;3.67;2.00;;;;;17.47;54.03;99937.13;5085802;27;47549;-66
2022/09/27 13:23:15;;;;;;;;;3.00;3.00;;;;;17.32;54.10;99930.66;5092308;27;45370;-66
2022/09/27 13:25:52;;;;;;;;;34.00;32.50;;;;;17.10;54.79;99916.50;5091890;27;45503;-67
2022/09/27 13:28:34;;;;;;;;;45.50;37.75;;;;;17.17;56.68;99925.94;5093446;27;45608;-67
2022/09/27 13:31:06;;;;;;;;;249.25;233.25;;;;;17.19;56.32;99924.09;5095794;27;46258;-66
2022/09/27 13:33:42;;;;;;;;;204.50;195.50;;;;;17.21;56.92;99926.69;5096898;27;46047;-66
2022/09/27 13:36:24;;;;;;;;;152.50;144.50;;;;;17.31;56.22;99922.75;5094774;27;45531;-66
2022/09/27 13:39:03;;;;;;;;;117.33;101.33;;;;;17.38;56.00;99921.59;5088826;27;45331;-63
2022/09/27 13:41:44;;;;;;;;;89.75;81.75;;;;;17.36;56.02;99897.81;5090458;27;48161;-65
2022/09/27 13:44:31;;;;;;;;;81.75;69.25;;;;;17.48;55.85;99907.06;5096981;27;45471;-67
2022/09/27 13:47:12;;;;;;;;;66.75;53.00;;;;;17.48;56.20;99916.81;5088731;27;45790;-65
2022/09/27 13:49:42;;;;;;;;;56.50;48.25;;;;;17.45;55.87;99907.19;5093856;27;45681;-65
2022/09/27 13:52:35;;;;;;;;;23.00;20.00;;;;;17.32;55.18;99903.28;5092200;27;48122;-66
2022/09/27 13:55:05;;;;;;;;;7.00;7.00;;;;;17.29;55.23;99900.78;5094168;27;45756;-67
2022/09/27 13:57:41;;;;;;;;;5.33;3.00;;;;;17.21;56.00;99901.09;5097920;27;45510;-65
2022/09/27 14:00:37;;;;;;;;;3.33;2.00;;;;;17.16;55.88;99900.41;5096104;27;45539;-64
2022/09/27 14:03:12;;;;;;;;;1.00;1.00;;;;;17.21;56.46;99901.09;5083086;27;47909;-68
2022/09/27 14:05:51;;;;;;;;;5.00;1.00;;;;;17.25;56.07;99899.16;5097080;27;45920;-66
2022/09/27 14:08:35;;;;;;;;;3.67;0.67;;;;;17.19;56.29;99881.75;5098443;27;45399;-66
2022/09/27 14:11:03;;;;;;;;;0.00;0.00;;;;;17.24;56.07;99882.44;5096595;27;45281;-65
2022/09/27 14:13:34;;;;;;;;;3.33;1.33;;;;;17.41;55.48;99888.84;5112767;27;46538;-69
2022/09/27 14:16:04;;;;;;;;;1.00;1.00;;;;;17.46;55.66;99885.09;5099715;27;45226;-65
2022/09/27 14:18:30;;;;;;;;;1.33;1.33;;;;;17.37;56.18;99877.53;5096738;27;45438;-67
2022/09/27 14:21:38;;;;;;;;;3.67;1.00;;;;;17.30;55.86;99871.63;5099861;27;45318;-67
2022/09/27 14:24:27;;;;;;;;;1.67;0.33;;;;;17.27;56.03;99879.66;5033452;28;45719;-66
2022/09/27 14:27:12;;;;;;;;;3.33;1.00;;;;;17.30;55.86;99868.13;5094882;27;45411;-66
2022/09/27 14:29:52;;;;;;;;;4.33;2.33;;;;;17.31;55.88;99865.38;5097371;27;45408;-66
2022/09/27 14:32:20;;;;;;;;;4.67;3.00;;;;;17.34;55.66;99864.41;5096409;27;45336;-66
2022/09/27 14:35:02;;;;;;;;;1.67;1.00;;;;;17.23;55.74;99875.44;5097951;27;45534;-65
2022/09/27 14:37:28;;;;;;;;;2.00;1.00;;;;;17.08;56.26;99876.00;5099617;27;45365;-68
2022/09/27 14:39:58;;;;;;;;;1.33;1.00;;;;;16.92;56.89;99886.34;5101160;27;45429;-68
2022/09/27 14:42:27;;;;;;;;;2.00;2.00;;;;;16.81;57.19;99899.94;5099718;27;45632;-67
2022/09/27 14:44:58;;;;;;;;;1.33;1.00;;;;;16.68;57.46;99891.56;5100115;27;45435;-68
2022/09/27 14:47:27;;;;;;;;;1.00;1.00;;;;;16.64;57.96;99883.81;5097569;27;45624;-66
2022/09/27 14:49:58;;;;;;;;;2.00;2.00;;;;;16.48;57.93;99860.56;5097161;27;45797;-69
2022/09/27 14:52:31;;;;;;;;;1.00;1.00;;;;;16.47;58.36;99863.28;5098959;27;45502;-65
2022/09/27 14:55:15;;;;;;;;;2.00;1.00;;;;;16.49;58.72;99872.00;5099259;27;45509;-64
2022/09/27 14:57:46;;;;;;;;;2.00;2.00;;;;;16.39;59.23;99887.31;5092055;27;45527;-64
2022/09/27 15:00:19;;;;;;;;;2.33;1.00;;;;;16.35;60.61;99858.41;5093433;27;45467;-65
2022/09/27 15:02:46;;;;;;;;;5.33;2.67;;;;;16.00;63.42;99829.69;5096684;27;45499;-70
2022/09/27 15:05:23;;;;;;;;;4.67;2.00;;;;;15.69;64.22;99809.59;5096303;27;46369;-65
2022/09/27 15:07:50;;;;;;;;;2.00;1.00;;;;;15.79;63.03;99828.66;5095516;27;45373;-67
2022/09/27 15:10:19;;;;;;;;;2.67;2.67;;;;;15.97;62.22;99835.09;5093932;27;45660;-70
2022/09/27 15:12:48;;;;;;;;;3.00;1.33;;;;;16.06;62.06;99807.47;5096262;27;45875;-69
2022/09/27 15:15:21;;;;;;;;;1.00;1.00;;;;;16.28;62.09;99824.28;5094770;27;45390;-68
2022/09/27 15:17:47;;;;;;;;;1.67;1.67;;;;;16.35;61.92;99818.78;5094907;27;45597;-67
2022/09/27 15:20:19;;;;;;;;;4.00;1.67;;;;;16.34;62.48;99823.19;5093950;27;45457;-67
2022/09/27 15:22:46;;;;;;;;;2.00;2.00;;;;;16.31;62.33;99808.31;5096755;27;45394;-71
2022/09/27 15:25:33;;;;;;;;;2.00;2.00;;;;;16.28;63.28;99813.72;5099934;27;45648;-65
2022/09/27 15:28:02;;;;;;;;;4.00;2.33;;;;;16.21;64.17;99806.09;5100269;27;45299;-67
2022/09/27 15:30:37;;;;;;;;;2.33;1.00;;;;;16.20;63.43;99793.78;5098606;27;45415;-65
2022/09/27 15:33:05;;;;;;;;;5.00;4.00;;;;;16.16;63.40;99793.03;5111951;27;45481;-69
2022/09/27 15:35:34;;;;;;;;;3.00;2.00;;;;;16.19;63.03;99795.56;5094371;27;46686;-69
2022/09/27 15:38:25;;;;;;;;;5.00;2.67;;;;;16.31;63.12;99802.19;5095270;27;45484;-66
2022/09/27 15:40:51;;;;;;;;;6.67;3.00;;;;;16.28;63.68;99794.38;5094205;27;45440;-68
2022/09/27 15:43:21;;;;;;;;;2.00;1.67;;;;;16.22;63.82;99790.16;5111106;27;46080;-67
2022/09/27 15:45:52;;;;;;;;;4.00;2.33;;;;;16.20;63.50;99785.84;5095122;27;46102;-67
2022/09/27 15:48:20;;;;;;;;;6.00;3.00;;;;;16.23;63.00;99783.97;5095502;27;45659;-65
2022/09/27 15:50:48;;;;;;;;;1.00;1.00;;;;;16.20;64.18;99777.94;5096405;27;45471;-70
2022/09/27 15:53:32;;;;;;;;;3.00;1.33;;;;;16.17;64.13;99768.34;5099060;27;45396;-69
2022/09/27 15:55:58;;;;;;;;;3.00;3.00;;;;;16.14;64.89;99768.44;5097109;27;46336;-65
2022/09/27 15:58:24;;;;;;;;;3.00;1.67;;;;;16.09;64.61;99779.19;5094645;27;45518;-65
2022/09/27 16:01:01;;;;;;;;;1.33;1.00;;;;;16.15;64.85;99780.72;5096617;27;45509;-65
2022/09/27 16:03:27;;;;;;;;;4.67;3.00;;;;;16.13;66.17;99771.13;5098874;27;45451;-68
2022/09/27 16:05:56;;;;;;;;;4.67;4.67;;;;;16.06;64.96;99759.94;5098611;27;46144;-67
2022/09/27 16:08:23;;;;;;;;;5.00;5.00;;;;;15.90;67.03;99749.94;5094601;27;45349;-64
2022/09/27 16:11:02;;;;;;;;;4.33;2.00;;;;;15.83;65.19;99742.28;5110537;27;45739;-70
2022/09/27 16:13:27;;;;;;;;;4.67;3.00;;;;;15.82;65.57;99765.16;5094121;27;45503;-70
2022/09/27 16:15:53;;;;;;;;;3.67;3.67;;;;;15.77;65.54;99764.47;5094457;27;45487;-69
2022/09/27 16:18:18;;;;;;;;;4.67;3.67;;;;;15.74;65.07;99753.16;5093563;27;45736;-70
2022/09/27 16:20:44;;;;;;;;;3.00;3.00;;;;;15.78;66.06;99758.28;5093482;27;45745;-68
2022/09/27 16:23:10;;;;;;;;;5.00;3.00;;;;;15.78;66.45;99762.69;5098917;27;45456;-67
2022/09/27 16:25:35;;;;;;;;;4.67;4.33;;;;;15.79;67.36;99767.06;5098409;27;46426;-65
2022/09/27 16:28:03;;;;;;;;;4.67;3.33;;;;;15.78;67.37;99765.31;5110938;27;45326;-67
2022/09/27 16:30:30;;;;;;;;;5.00;5.00;;;;;15.71;67.88;99743.59;5093495;27;45385;-66
2022/09/27 16:32:55;;;;;;;;;5.33;4.00;;;;;15.76;65.33;99764.53;5094252;27;45696;-66
2022/09/27 16:35:23;;;;;;;;;4.67;3.67;;;;;15.76;63.98;99751.34;5093674;27;45508;-67
2022/09/27 16:37:48;;;;;;;;;6.00;3.67;;;;;15.73;64.33;99756.69;5096216;27;45769;-65
2022/09/27 16:40:17;;;;;;;;;5.33;3.00;;;;;15.72;63.53;99752.34;5093975;27;45338;-66
2022/09/27 16:42:44;;;;;;;;;4.00;2.00;;;;;15.68;62.86;99744.53;5093918;27;45408;-64
2022/09/27 16:45:10;;;;;;;;;3.67;2.33;;;;;15.74;62.49;99755.81;5109363;27;46009;-67
2022/09/27 16:47:36;;;;;;;;;3.67;2.00;;;;;15.74;62.19;99751.38;5094450;27;45672;-68
2022/09/27 16:52:51;;;;;;;;;3.33;2.00;;;;;15.71;62.46;99738.31;5095422;27;45707;-69